createdAt,value
2023-01-13T00:00:12.740Z,0
2023-01-13T00:01:20.924Z,0
2023-01-13T00:02:30.086Z,0
2023-01-13T00:03:39.265Z,0
2023-01-13T00:04:47.485Z,0
2023-01-13T00:05:55.656Z,0
2023-01-13T00:07:04.819Z,0
2023-01-13T00:08:13.997Z,0
2023-01-13T00:09:23.161Z,0
2023-01-13T00:10:32.343Z,0
2023-01-13T00:11:41.557Z,0
2023-01-13T00:12:50.681Z,0
2023-01-13T00:13:59.847Z,0
2023-01-13T00:15:09.025Z,0
2023-01-13T00:16:18.205Z,0
2023-01-13T00:17:27.376Z,0
2023-01-13T00:18:36.549Z,0
2023-01-13T00:19:45.722Z,0
2023-01-13T00:20:53.901Z,0
2023-01-13T00:22:03.084Z,0
2023-01-13T00:23:12.293Z,0
2023-01-13T00:24:21.445Z,0
2023-01-13T00:25:30.590Z,0
2023-01-13T00:26:39.776Z,0
2023-01-13T00:27:47.967Z,0
2023-01-13T00:28:57.136Z,0
2023-01-13T00:30:05.316Z,0
2023-01-13T00:31:13.557Z,0
2023-01-13T00:32:22.747Z,0
2023-01-13T00:33:31.893Z,0
2023-01-13T00:34:41.049Z,0
2023-01-13T00:35:49.236Z,0
2023-01-13T00:36:57.473Z,0
2023-01-13T00:38:06.600Z,0
2023-01-13T00:39:15.766Z,0
2023-01-13T00:40:24.944Z,0
2023-01-13T00:41:34.100Z,0
2023-01-13T00:42:43.316Z,0
2023-01-13T00:43:52.441Z,0
2023-01-13T00:45:01.642Z,0
2023-01-13T00:46:10.783Z,0
2023-01-13T00:47:19.967Z,0
2023-01-13T00:49:38.307Z,0
2023-01-13T00:50:47.483Z,0
2023-01-13T00:51:56.652Z,0
2023-01-13T00:53:04.851Z,0
2023-01-13T00:54:14.017Z,0
2023-01-13T00:55:23.185Z,0
2023-01-13T00:56:32.361Z,0
2023-01-13T00:57:41.539Z,0
2023-01-13T00:58:50.704Z,0
2023-01-13T00:59:59.904Z,0
2023-01-13T01:02:17.265Z,0
2023-01-13T01:03:25.449Z,0
2023-01-13T01:04:33.627Z,0
2023-01-13T01:05:42.822Z,0
2023-01-13T01:06:50.998Z,0
2023-01-13T01:08:00.183Z,0
2023-01-13T01:09:08.397Z,0
2023-01-13T01:10:17.523Z,0
2023-01-13T01:11:26.746Z,0
2023-01-13T01:13:45.059Z,0
2023-01-13T01:14:54.229Z,0
2023-01-13T01:16:03.399Z,0
2023-01-13T01:17:12.592Z,0
2023-01-13T01:18:21.739Z,0
2023-01-13T01:19:30.922Z,0
2023-01-13T01:20:40.160Z,0
2023-01-13T01:21:49.264Z,0
2023-01-13T01:22:58.480Z,0
2023-01-13T01:24:06.694Z,0
2023-01-13T01:25:15.815Z,0
2023-01-13T01:26:24.970Z,0
2023-01-13T01:27:34.136Z,0
2023-01-13T01:28:43.368Z,0
2023-01-13T01:29:52.470Z,0
2023-01-13T01:31:01.705Z,0
2023-01-13T01:32:10.847Z,0
2023-01-13T01:33:20.014Z,0
2023-01-13T01:34:29.331Z,0
2023-01-13T01:35:38.354Z,0
2023-01-13T01:36:47.516Z,0
2023-01-13T01:37:56.744Z,0
2023-01-13T01:39:04.883Z,0
2023-01-13T01:40:14.058Z,0
2023-01-13T01:41:23.235Z,0
2023-01-13T01:42:32.421Z,0
2023-01-13T01:43:41.561Z,0
2023-01-13T01:44:50.751Z,0
2023-01-13T01:45:59.918Z,0
2023-01-13T01:47:09.085Z,0
2023-01-13T01:48:18.317Z,0
2023-01-13T01:49:27.439Z,0
2023-01-13T01:51:45.773Z,0
2023-01-13T01:52:54.007Z,0
2023-01-13T01:54:02.153Z,0
2023-01-13T01:55:10.396Z,0
2023-01-13T01:56:18.543Z,0
2023-01-13T01:57:27.708Z,0
2023-01-13T01:58:36.882Z,0
2023-01-13T01:59:46.077Z,0
2023-01-13T02:00:55.231Z,0
2023-01-13T02:02:04.508Z,0
2023-01-13T02:03:13.593Z,0
2023-01-13T02:04:22.749Z,0
2023-01-13T02:05:31.926Z,0
2023-01-13T02:06:41.141Z,0
2023-01-13T02:07:50.257Z,0
2023-01-13T02:08:59.424Z,0
2023-01-13T02:10:08.617Z,0
2023-01-13T02:11:16.836Z,0
2023-01-13T02:12:25.971Z,0
2023-01-13T02:13:35.139Z,0
2023-01-13T02:14:44.321Z,0
2023-01-13T02:15:53.614Z,0
2023-01-13T02:17:02.721Z,0
2023-01-13T02:18:11.835Z,0
2023-01-13T02:19:21.011Z,0
2023-01-13T02:20:30.188Z,0
2023-01-13T02:21:39.417Z,0
2023-01-13T02:22:48.514Z,0
2023-01-13T02:23:57.710Z,0
2023-01-13T02:25:06.917Z,0
2023-01-13T02:26:15.056Z,0
2023-01-13T02:27:24.227Z,0
2023-01-13T02:28:33.411Z,0
2023-01-13T02:29:42.604Z,0
2023-01-13T02:32:00.912Z,0
2023-01-13T02:33:10.094Z,0
2023-01-13T02:34:19.264Z,0
2023-01-13T02:35:28.438Z,0
2023-01-13T02:36:37.610Z,0
2023-01-13T02:37:45.804Z,0
2023-01-13T02:40:03.179Z,0
2023-01-13T02:41:12.332Z,0
2023-01-13T02:42:21.519Z,0
2023-01-13T02:43:30.683Z,0
2023-01-13T02:45:48.054Z,0
2023-01-13T02:46:56.454Z,0
2023-01-13T02:48:04.446Z,0
2023-01-13T02:49:13.599Z,0
2023-01-13T02:50:22.766Z,0
2023-01-13T02:51:31.993Z,0
2023-01-13T02:52:41.180Z,0
2023-01-13T02:53:50.298Z,0
2023-01-13T02:54:59.467Z,0
2023-01-13T02:56:08.651Z,0
2023-01-13T02:57:17.840Z,0
2023-01-13T02:58:26.977Z,0
2023-01-13T02:59:36.212Z,0
2023-01-13T03:00:45.328Z,0
2023-01-13T03:01:54.524Z,0
2023-01-13T03:03:02.702Z,0
2023-01-13T03:04:11.855Z,0
2023-01-13T03:05:21.025Z,0
2023-01-13T03:06:30.209Z,0
2023-01-13T03:07:39.394Z,0
2023-01-13T03:08:48.545Z,0
2023-01-13T03:09:57.723Z,0
2023-01-13T03:11:05.963Z,0
2023-01-13T03:12:14.111Z,0
2023-01-13T03:13:22.303Z,0
2023-01-13T03:14:30.493Z,0
2023-01-13T03:15:39.658Z,0
2023-01-13T03:16:48.825Z,0
2023-01-13T03:17:58.010Z,0
2023-01-13T03:19:07.172Z,0
2023-01-13T03:20:16.351Z,0
2023-01-13T03:21:25.510Z,0
2023-01-13T03:22:34.693Z,0
2023-01-13T03:23:43.869Z,0
2023-01-13T03:24:53.037Z,0
2023-01-13T03:26:02.221Z,0
2023-01-13T03:27:11.392Z,0
2023-01-13T03:28:20.561Z,0
2023-01-13T03:29:28.743Z,0
2023-01-13T03:30:37.915Z,0
2023-01-13T03:31:47.093Z,0
2023-01-13T03:32:56.284Z,0
2023-01-13T03:34:05.439Z,0
2023-01-13T03:35:14.601Z,0
2023-01-13T03:36:23.785Z,0
2023-01-13T03:37:31.973Z,0
2023-01-13T03:38:40.174Z,0
2023-01-13T03:40:57.536Z,0
2023-01-13T03:42:05.722Z,0
2023-01-13T03:43:13.912Z,0
2023-01-13T03:44:23.082Z,0
2023-01-13T03:45:32.254Z,0
2023-01-13T03:46:41.438Z,0
2023-01-13T03:47:50.610Z,0
2023-01-13T03:48:59.851Z,0
2023-01-13T03:50:08.953Z,0
2023-01-13T03:51:18.118Z,0
2023-01-13T03:52:27.292Z,0
2023-01-13T03:53:36.460Z,0
2023-01-13T03:54:45.638Z,0
2023-01-13T03:55:54.822Z,0
2023-01-13T03:57:03.977Z,0
2023-01-13T03:58:12.296Z,0
2023-01-13T03:59:21.401Z,0
2023-01-13T04:00:30.584Z,0
2023-01-13T04:01:39.704Z,0
2023-01-13T04:02:48.860Z,0
2023-01-13T04:03:58.041Z,0
2023-01-13T04:05:07.205Z,0
2023-01-13T04:06:16.371Z,0
2023-01-13T04:07:25.545Z,0
2023-01-13T04:08:34.741Z,0
2023-01-13T04:09:43.886Z,0
2023-01-13T04:10:53.065Z,0
2023-01-13T04:12:02.245Z,0
2023-01-13T04:13:10.441Z,0
2023-01-13T04:14:18.631Z,0
2023-01-13T04:15:26.838Z,0
2023-01-13T04:16:35.981Z,0
2023-01-13T04:17:45.166Z,0
2023-01-13T04:18:53.361Z,0
2023-01-13T04:20:01.560Z,0
2023-01-13T04:21:10.723Z,0
2023-01-13T04:22:19.893Z,0
2023-01-13T04:23:29.084Z,0
2023-01-13T04:24:38.241Z,0
2023-01-13T04:25:47.521Z,0
2023-01-13T04:26:56.590Z,0
2023-01-13T04:28:05.757Z,0
2023-01-13T04:29:14.952Z,0
2023-01-13T04:30:24.105Z,0
2023-01-13T04:31:33.298Z,0
2023-01-13T04:32:42.442Z,0
2023-01-13T04:33:51.634Z,0
2023-01-13T04:34:59.802Z,0
2023-01-13T04:36:08.976Z,0
2023-01-13T04:37:18.150Z,0
2023-01-13T04:38:27.321Z,0
2023-01-13T04:39:36.495Z,0
2023-01-13T04:40:45.672Z,0
2023-01-13T04:41:54.845Z,0
2023-01-13T04:43:04.041Z,0
2023-01-13T04:44:12.213Z,0
2023-01-13T04:45:21.396Z,0
2023-01-13T04:46:29.580Z,0
2023-01-13T04:47:37.761Z,0
2023-01-13T04:48:46.977Z,0
2023-01-13T04:51:05.288Z,0
2023-01-13T04:52:14.460Z,0
2023-01-13T04:53:23.624Z,0
2023-01-13T04:54:32.793Z,0
2023-01-13T04:55:41.973Z,0
2023-01-13T04:56:51.152Z,0
2023-01-13T04:58:00.327Z,0
2023-01-13T04:59:09.620Z,0
2023-01-13T05:00:18.710Z,0
2023-01-13T05:01:27.911Z,0
2023-01-13T05:02:36.058Z,0
2023-01-13T05:03:45.247Z,0
2023-01-13T05:04:54.411Z,0
2023-01-13T05:06:03.588Z,0
2023-01-13T05:07:12.774Z,0
2023-01-13T05:08:21.930Z,0
2023-01-13T05:09:31.108Z,0
2023-01-13T05:10:40.286Z,0
2023-01-13T05:11:49.451Z,0
2023-01-13T05:12:58.617Z,0
2023-01-13T05:14:07.803Z,0
2023-01-13T05:15:16.982Z,0
2023-01-13T05:16:26.140Z,0
2023-01-13T05:17:34.320Z,0
2023-01-13T05:18:43.503Z,0
2023-01-13T05:19:52.673Z,0
2023-01-13T05:21:01.831Z,0
2023-01-13T05:22:11.015Z,0
2023-01-13T05:23:20.321Z,0
2023-01-13T05:24:29.361Z,0
2023-01-13T05:25:38.527Z,0
2023-01-13T05:26:47.712Z,0
2023-01-13T05:27:56.891Z,0
2023-01-13T05:29:06.048Z,0
2023-01-13T05:30:15.214Z,0
2023-01-13T05:32:33.567Z,0
2023-01-13T05:33:41.753Z,0
2023-01-13T05:34:50.929Z,0
2023-01-13T05:36:00.100Z,0
2023-01-13T05:37:09.289Z,0
2023-01-13T05:38:18.491Z,0
2023-01-13T05:39:27.616Z,0
2023-01-13T05:40:36.796Z,0
2023-01-13T05:41:45.965Z,0
2023-01-13T05:42:55.137Z,0
2023-01-13T05:44:04.320Z,0
2023-01-13T05:45:13.480Z,0
2023-01-13T05:46:22.660Z,0
2023-01-13T05:47:31.827Z,0
2023-01-13T05:48:40.021Z,0
2023-01-13T05:49:49.186Z,0
2023-01-13T05:50:58.346Z,0
2023-01-13T05:52:07.601Z,0
2023-01-13T05:53:16.695Z,0
2023-01-13T05:54:25.873Z,0
2023-01-13T05:55:35.055Z,0
2023-01-13T05:56:44.217Z,0
2023-01-13T05:59:02.602Z,0
2023-01-13T06:00:11.792Z,0
2023-01-13T06:01:20.917Z,0
2023-01-13T06:02:30.096Z,0
2023-01-13T06:03:38.272Z,0
2023-01-13T06:04:47.464Z,0
2023-01-13T06:05:56.619Z,0
2023-01-13T06:07:05.787Z,0
2023-01-13T06:08:14.957Z,0
2023-01-13T06:09:24.137Z,0
2023-01-13T06:10:33.294Z,0
2023-01-13T06:11:42.486Z,0
2023-01-13T06:12:51.649Z,0
2023-01-13T06:14:00.827Z,0
2023-01-13T06:15:10.025Z,0
2023-01-13T06:16:19.169Z,0
2023-01-13T06:17:28.337Z,0
2023-01-13T06:18:36.540Z,0
2023-01-13T06:19:44.742Z,0
2023-01-13T06:20:52.947Z,0
2023-01-13T06:22:02.194Z,0
2023-01-13T06:23:11.273Z,0
2023-01-13T06:24:20.432Z,0
2023-01-13T06:25:29.605Z,0
2023-01-13T06:26:38.777Z,0
2023-01-13T06:27:47.945Z,0
2023-01-13T06:28:57.149Z,0
2023-01-13T06:30:06.289Z,0
2023-01-13T06:31:15.473Z,0
2023-01-13T06:32:24.639Z,0
2023-01-13T06:33:33.808Z,0
2023-01-13T06:34:43.000Z,0
2023-01-13T06:35:51.166Z,0
2023-01-13T06:37:00.338Z,0
2023-01-13T06:38:09.513Z,0
2023-01-13T06:40:27.855Z,0
2023-01-13T06:41:37.047Z,0
2023-01-13T06:42:46.207Z,0
2023-01-13T06:43:55.374Z,3
2023-01-13T06:45:03.573Z,0
2023-01-13T06:46:11.798Z,0
2023-01-13T06:47:19.985Z,0
2023-01-13T06:48:29.121Z,0
2023-01-13T06:50:46.488Z,0
2023-01-13T06:51:55.675Z,0
2023-01-13T06:53:04.851Z,0
2023-01-13T06:54:13.998Z,3
2023-01-13T06:55:23.181Z,3
2023-01-13T06:56:32.507Z,3
2023-01-13T06:57:41.527Z,3
2023-01-13T06:58:50.697Z,3
2023-01-13T06:59:59.859Z,3
2023-01-13T07:01:09.095Z,3
2023-01-13T07:02:18.213Z,4
2023-01-13T07:03:27.378Z,0
2023-01-13T07:04:35.568Z,4
2023-01-13T07:05:44.836Z,4
2023-01-13T07:06:53.921Z,9
2023-01-13T07:08:03.126Z,9
2023-01-13T07:09:12.254Z,9
2023-01-13T07:10:21.431Z,13
2023-01-13T07:11:30.650Z,10
2023-01-13T07:12:38.792Z,10
2023-01-13T07:13:46.985Z,14
2023-01-13T07:14:56.238Z,6
2023-01-13T07:16:04.348Z,19
2023-01-13T07:17:12.527Z,28
2023-01-13T07:18:21.733Z,24
2023-01-13T07:19:30.886Z,30
2023-01-13T07:20:40.091Z,21
2023-01-13T07:21:49.255Z,52
2023-01-13T07:22:58.407Z,57
2023-01-13T07:24:07.618Z,71
2023-01-13T07:25:16.744Z,85
2023-01-13T07:26:25.919Z,129
2023-01-13T07:27:35.084Z,126
2023-01-13T07:28:44.343Z,139
2023-01-13T07:29:53.558Z,161
2023-01-13T07:31:02.626Z,162
2023-01-13T07:32:10.791Z,184
2023-01-13T07:33:19.980Z,180
2023-01-13T07:34:29.214Z,187
2023-01-13T07:36:47.505Z,143
2023-01-13T07:39:05.847Z,136
2023-01-13T07:40:14.066Z,130
2023-01-13T07:41:22.237Z,121
2023-01-13T07:42:31.418Z,151
2023-01-13T07:43:40.678Z,219
2023-01-13T07:44:49.741Z,265
2023-01-13T07:45:58.899Z,257
2023-01-13T07:47:08.075Z,282
2023-01-13T07:48:17.255Z,231
2023-01-13T07:49:26.420Z,265
2023-01-13T07:50:35.588Z,267
2023-01-13T07:51:44.769Z,286
2023-01-13T07:52:52.964Z,318
2023-01-13T07:54:01.142Z,346
2023-01-13T07:55:10.359Z,423
2023-01-13T07:56:19.497Z,534
2023-01-13T07:57:28.664Z,496
2023-01-13T07:58:37.867Z,613
2023-01-13T07:59:47.014Z,492
2023-01-13T08:00:56.182Z,621
2023-01-13T08:02:05.351Z,592
2023-01-13T08:03:14.533Z,576
2023-01-13T08:04:23.859Z,721
2023-01-13T08:05:32.875Z,576
2023-01-13T08:06:42.051Z,686
2023-01-13T08:07:51.272Z,470
2023-01-13T08:08:59.444Z,733
2023-01-13T08:10:08.584Z,580
2023-01-13T08:11:16.980Z,536
2023-01-13T08:12:25.945Z,722
2023-01-13T08:13:35.197Z,759
2023-01-13T08:14:44.307Z,578
2023-01-13T08:15:53.464Z,663
2023-01-13T08:17:01.661Z,781
2023-01-13T08:18:09.846Z,636
2023-01-13T08:19:19.021Z,778
2023-01-13T08:20:28.258Z,652
2023-01-13T08:21:37.368Z,730
2023-01-13T08:22:46.528Z,849
2023-01-13T08:23:54.805Z,661
2023-01-13T08:25:03.082Z,917
2023-01-13T08:26:12.111Z,761
2023-01-13T08:27:21.278Z,559
2023-01-13T08:28:30.432Z,581
2023-01-13T08:29:39.625Z,596
2023-01-13T08:30:48.785Z,854
2023-01-13T08:31:57.956Z,1122
2023-01-13T08:33:07.158Z,1245
2023-01-13T08:34:16.334Z,1214
2023-01-13T08:35:25.481Z,1324
2023-01-13T08:36:34.655Z,1513
2023-01-13T08:37:43.818Z,1615
2023-01-13T08:38:53.019Z,1707
2023-01-13T08:40:01.204Z,1659
2023-01-13T08:41:10.430Z,1799
2023-01-13T08:42:19.524Z,1720
2023-01-13T08:43:28.707Z,1751
2023-01-13T08:44:37.868Z,1687
2023-01-13T08:45:47.055Z,1790
2023-01-13T08:46:56.235Z,1589
2023-01-13T08:49:13.627Z,1803
2023-01-13T08:50:21.866Z,1719
2023-01-13T08:51:30.940Z,1798
2023-01-13T08:52:39.145Z,1807
2023-01-13T08:53:48.388Z,1827
2023-01-13T08:54:56.504Z,1779
2023-01-13T08:56:04.753Z,1445
2023-01-13T08:58:23.136Z,1649
2023-01-13T08:59:32.247Z,1612
2023-01-13T09:00:41.380Z,1666
2023-01-13T09:01:50.653Z,1664
2023-01-13T09:02:59.842Z,1718
2023-01-13T09:04:09.061Z,1897
2023-01-13T09:05:18.097Z,1894
2023-01-13T09:06:27.291Z,2385
2023-01-13T09:07:36.422Z,2822
2023-01-13T09:08:45.632Z,2643
2023-01-13T09:09:54.765Z,2268
2023-01-13T09:11:02.943Z,2596
2023-01-13T09:12:12.125Z,2709
2023-01-13T09:13:21.282Z,2974
2023-01-13T09:14:30.499Z,2388
2023-01-13T09:15:39.640Z,1859
2023-01-13T09:16:48.815Z,1903
2023-01-13T09:17:58.001Z,1991
2023-01-13T09:19:07.161Z,2369
2023-01-13T09:20:15.443Z,2500
2023-01-13T09:21:23.556Z,2035
2023-01-13T09:23:41.895Z,1640
2023-01-13T09:24:51.058Z,1582
2023-01-13T09:25:59.258Z,1708
2023-01-13T09:27:07.439Z,1890
2023-01-13T09:28:16.616Z,2218
2023-01-13T09:29:25.793Z,2421
2023-01-13T09:31:44.148Z,2637
2023-01-13T09:32:53.293Z,2950
2023-01-13T09:34:02.483Z,2788
2023-01-13T09:35:11.672Z,3363
2023-01-13T09:36:20.825Z,3171
2023-01-13T09:37:30.003Z,2980
2023-01-13T09:38:39.297Z,3416
2023-01-13T09:39:48.330Z,3387
2023-01-13T09:40:57.527Z,2991
2023-01-13T09:42:05.713Z,3497
2023-01-13T09:43:14.881Z,3205
2023-01-13T09:44:24.052Z,3248
2023-01-13T09:45:33.224Z,2851
2023-01-13T09:46:42.385Z,4032
2023-01-13T09:47:51.570Z,4113
2023-01-13T09:49:00.738Z,4056
2023-01-13T09:50:09.988Z,3333
2023-01-13T09:51:18.097Z,4325
2023-01-13T09:52:26.297Z,4240
2023-01-13T09:53:35.600Z,3800
2023-01-13T09:54:44.636Z,3384
2023-01-13T09:55:52.827Z,4123
2023-01-13T09:57:01.021Z,4950
2023-01-13T09:58:10.195Z,3820
2023-01-13T09:59:19.445Z,4076
2023-01-13T10:00:28.540Z,4855
2023-01-13T10:01:37.703Z,2875
2023-01-13T10:02:46.888Z,3263
2023-01-13T10:03:56.118Z,3316
2023-01-13T10:05:05.226Z,4366
2023-01-13T10:06:14.392Z,4307
2023-01-13T10:07:23.576Z,3498
2023-01-13T10:08:32.740Z,3716
2023-01-13T10:09:41.931Z,3550
2023-01-13T10:10:51.115Z,3646
2023-01-13T10:11:59.284Z,3713
2023-01-13T10:13:08.479Z,3865
2023-01-13T10:14:17.629Z,3591
2023-01-13T10:15:26.787Z,3837
2023-01-13T10:16:35.967Z,1568
2023-01-13T10:17:45.142Z,5830
2023-01-13T10:18:54.346Z,3472
2023-01-13T10:20:03.527Z,3457
2023-01-13T10:21:12.662Z,5054
2023-01-13T10:22:21.832Z,5341
2023-01-13T10:23:30.995Z,4305
2023-01-13T10:24:40.390Z,5753
2023-01-13T10:25:49.604Z,4276
2023-01-13T10:26:57.793Z,3844
2023-01-13T10:28:07.075Z,5423
2023-01-13T10:29:16.111Z,4658
2023-01-13T10:31:34.462Z,3124
2023-01-13T10:32:42.648Z,11430
2023-01-13T10:33:50.825Z,9170
2023-01-13T10:35:00.025Z,8251
2023-01-13T10:36:09.254Z,4264
2023-01-13T10:37:18.362Z,8489
2023-01-13T10:38:27.512Z,6624
2023-01-13T10:39:36.681Z,5440
2023-01-13T10:40:44.891Z,6535
2023-01-13T10:41:53.065Z,5499
2023-01-13T10:43:02.342Z,4720
2023-01-13T10:44:11.470Z,4649
2023-01-13T10:45:20.599Z,5741
2023-01-13T10:46:29.776Z,5952
2023-01-13T10:47:38.971Z,5983
2023-01-13T10:48:48.114Z,2356
2023-01-13T10:49:57.280Z,12089
2023-01-13T10:51:06.463Z,5587
2023-01-13T10:52:15.624Z,7089
2023-01-13T10:53:24.795Z,7030
2023-01-13T10:54:34.033Z,4432
2023-01-13T10:55:43.144Z,4085
2023-01-13T10:56:51.413Z,5353
2023-01-13T10:58:00.547Z,4864
2023-01-13T10:59:09.695Z,4270
2023-01-13T11:00:18.992Z,4464
2023-01-13T11:01:28.027Z,4973
2023-01-13T11:02:37.355Z,3982
2023-01-13T11:03:46.395Z,2787
2023-01-13T11:04:55.546Z,3599
2023-01-13T11:06:04.718Z,4500
2023-01-13T11:07:13.880Z,4389
2023-01-13T11:08:23.061Z,3179
2023-01-13T11:09:32.297Z,2790
2023-01-13T11:10:41.400Z,3466
2023-01-13T11:11:49.601Z,4234
2023-01-13T11:12:58.859Z,3471
2023-01-13T11:14:06.973Z,5663
2023-01-13T11:15:15.161Z,4612
2023-01-13T11:16:24.338Z,5412
2023-01-13T11:17:32.534Z,4288
2023-01-13T11:18:40.720Z,4590
2023-01-13T11:19:49.873Z,4471
2023-01-13T11:20:59.113Z,3967
2023-01-13T11:22:08.221Z,3566
2023-01-13T11:23:17.406Z,3971
2023-01-13T11:24:26.566Z,3198
2023-01-13T11:25:35.740Z,2886
2023-01-13T11:26:44.919Z,4423
2023-01-13T11:27:54.095Z,3377
2023-01-13T11:29:03.511Z,4353
2023-01-13T11:30:12.554Z,4763
2023-01-13T11:31:21.606Z,4108
2023-01-13T11:32:30.823Z,4214
2023-01-13T11:33:39.957Z,3440
2023-01-13T11:34:48.143Z,3313
2023-01-13T11:35:57.310Z,4501
2023-01-13T11:37:06.487Z,4087
2023-01-13T11:38:15.660Z,3809
2023-01-13T11:40:33.993Z,4736
2023-01-13T11:41:43.179Z,4994
2023-01-13T11:42:51.368Z,4652
2023-01-13T11:43:59.549Z,4154
2023-01-13T11:45:07.746Z,3810
2023-01-13T11:46:15.929Z,3713
2023-01-13T11:47:25.106Z,4526
2023-01-13T11:48:34.294Z,3829
2023-01-13T11:49:43.502Z,3287
2023-01-13T11:50:52.629Z,2753
2023-01-13T11:52:01.803Z,3195
2023-01-13T11:53:10.977Z,2518
2023-01-13T11:54:20.153Z,1681
2023-01-13T11:55:29.386Z,1807
2023-01-13T11:56:38.505Z,1841
2023-01-13T11:57:47.655Z,2044
2023-01-13T11:58:56.841Z,2015
2023-01-13T12:00:06.012Z,1901
2023-01-13T12:01:14.224Z,1529
2023-01-13T12:02:22.409Z,1747
2023-01-13T12:03:31.588Z,1230
2023-01-13T12:04:40.738Z,876
2023-01-13T12:06:59.077Z,1440
2023-01-13T12:08:08.255Z,1779
2023-01-13T12:09:17.439Z,1210
2023-01-13T12:10:25.634Z,1782
2023-01-13T12:11:33.833Z,2322
2023-01-13T12:12:42.999Z,4124
2023-01-13T12:13:51.179Z,5777
2023-01-13T12:16:08.582Z,7748
2023-01-13T12:17:17.766Z,6465
2023-01-13T12:18:26.902Z,5381
2023-01-13T12:19:36.061Z,4552
2023-01-13T12:20:45.304Z,3707
2023-01-13T12:21:54.395Z,4128
2023-01-13T12:23:03.581Z,3087
2023-01-13T12:24:12.804Z,2557
2023-01-13T12:25:21.941Z,3973
2023-01-13T12:26:31.088Z,4755
2023-01-13T12:27:40.268Z,5318
2023-01-13T12:28:49.503Z,4967
2023-01-13T12:29:57.683Z,4962
2023-01-13T12:32:15.966Z,2519
2023-01-13T12:33:25.159Z,2560
2023-01-13T12:34:34.307Z,2846
2023-01-13T12:36:52.652Z,2106
2023-01-13T12:38:00.846Z,2425
2023-01-13T12:40:18.206Z,2916
2023-01-13T12:41:27.403Z,4450
2023-01-13T12:42:36.619Z,5187
2023-01-13T12:43:45.732Z,4654
2023-01-13T12:44:54.895Z,2638
2023-01-13T12:46:04.085Z,5273
2023-01-13T12:47:13.256Z,5751
2023-01-13T12:48:22.421Z,5654
2023-01-13T12:49:31.598Z,3860
2023-01-13T12:50:40.798Z,2881
2023-01-13T12:51:48.954Z,2804
2023-01-13T12:52:57.139Z,2178
2023-01-13T12:54:06.329Z,2028
2023-01-13T12:55:15.507Z,1770
2023-01-13T12:56:24.654Z,2092
2023-01-13T12:57:33.840Z,2339
2023-01-13T12:58:43.019Z,2187
2023-01-13T12:59:52.187Z,1530
2023-01-13T13:01:01.361Z,1789
2023-01-13T13:02:10.545Z,2204
2023-01-13T13:03:19.700Z,1732
2023-01-13T13:04:28.873Z,1941
2023-01-13T13:05:38.047Z,2058
2023-01-13T13:06:47.211Z,2454
2023-01-13T13:07:55.400Z,1662
2023-01-13T13:09:04.585Z,1624
2023-01-13T13:10:13.740Z,2192
2023-01-13T13:11:22.929Z,1622
2023-01-13T13:12:32.094Z,1646
2023-01-13T13:13:41.282Z,1925
2023-01-13T13:14:50.434Z,2879
2023-01-13T13:15:58.631Z,2747
2023-01-13T13:17:06.826Z,3243
2023-01-13T13:20:33.350Z,2333
2023-01-13T13:21:41.578Z,2206
2023-01-13T13:22:49.742Z,2526
2023-01-13T13:23:58.933Z,1485
2023-01-13T13:25:08.077Z,1303
2023-01-13T13:26:17.262Z,1905
2023-01-13T13:27:26.485Z,5382
2023-01-13T13:28:35.596Z,5971
2023-01-13T13:29:44.869Z,4399
2023-01-13T13:30:53.953Z,4907
2023-01-13T13:32:03.123Z,4678
2023-01-13T13:33:12.394Z,4654
2023-01-13T13:34:21.475Z,4179
2023-01-13T13:35:30.630Z,4930
2023-01-13T13:36:39.809Z,4045
2023-01-13T13:37:48.013Z,10609
2023-01-13T13:38:57.174Z,8709
2023-01-13T13:40:06.358Z,7783
2023-01-13T13:41:15.573Z,5275
2023-01-13T13:42:24.692Z,5546
2023-01-13T13:43:33.871Z,5084
2023-01-13T13:44:43.042Z,4487
2023-01-13T13:45:51.235Z,4014
2023-01-13T13:46:59.466Z,4214
2023-01-13T13:48:07.684Z,3408
2023-01-13T13:49:15.802Z,2333
2023-01-13T13:50:24.972Z,2748
2023-01-13T13:51:34.242Z,3126
2023-01-13T13:52:43.313Z,3225
2023-01-13T13:53:52.489Z,2974
2023-01-13T13:55:01.740Z,2453
2023-01-13T13:56:10.907Z,2164
2023-01-13T13:57:20.025Z,2213
2023-01-13T13:58:29.179Z,2181
2023-01-13T13:59:38.394Z,2626
2023-01-13T14:00:47.552Z,3349
2023-01-13T14:01:56.694Z,3068
2023-01-13T14:03:05.868Z,2608
2023-01-13T14:04:14.055Z,1970
2023-01-13T14:05:23.246Z,1539
2023-01-13T14:06:32.420Z,1544
2023-01-13T14:07:41.577Z,1367
2023-01-13T14:08:50.713Z,926
2023-01-13T14:09:59.909Z,1267
2023-01-13T14:11:09.049Z,1289
2023-01-13T14:12:17.247Z,1323
2023-01-13T14:13:25.444Z,1249
2023-01-13T14:14:34.637Z,947
2023-01-13T14:15:42.822Z,837
2023-01-13T14:16:50.987Z,783
2023-01-13T14:18:00.156Z,657
2023-01-13T14:20:18.501Z,422
2023-01-13T14:21:27.707Z,392
2023-01-13T14:22:36.848Z,316
2023-01-13T14:23:46.014Z,356
2023-01-13T14:24:55.200Z,532
2023-01-13T14:26:04.360Z,2870
2023-01-13T14:27:13.532Z,2797
2023-01-13T14:28:22.716Z,2254
2023-01-13T14:29:31.867Z,2158
2023-01-13T14:30:41.031Z,1660
2023-01-13T14:31:49.237Z,1622
2023-01-13T14:32:58.406Z,1991
2023-01-13T14:34:07.570Z,1916
2023-01-13T14:35:16.742Z,1870
2023-01-13T14:36:25.914Z,2046
2023-01-13T14:37:35.100Z,2266
2023-01-13T14:38:44.271Z,2037
2023-01-13T14:39:53.432Z,1799
2023-01-13T14:41:01.628Z,1271
2023-01-13T14:42:09.865Z,1492
2023-01-13T14:43:18.991Z,1571
2023-01-13T14:44:27.211Z,1586
2023-01-13T14:45:36.367Z,1497
2023-01-13T14:46:44.662Z,1338
2023-01-13T14:47:53.714Z,1196
2023-01-13T14:49:02.944Z,1039
2023-01-13T14:50:12.068Z,863
2023-01-13T14:51:21.235Z,603
2023-01-13T14:52:30.400Z,689
2023-01-13T14:53:39.607Z,879
2023-01-13T14:54:48.816Z,860
2023-01-13T14:55:57.919Z,742
2023-01-13T14:57:07.086Z,701
2023-01-13T14:58:16.263Z,712
2023-01-13T14:59:25.429Z,698
2023-01-13T15:00:34.611Z,675
2023-01-13T15:01:42.800Z,701
2023-01-13T15:02:51.966Z,674
2023-01-13T15:04:01.171Z,581
2023-01-13T15:05:10.327Z,526
2023-01-13T15:06:19.488Z,413
2023-01-13T15:08:37.825Z,295
2023-01-13T15:09:46.044Z,292
2023-01-13T15:12:03.496Z,232
2023-01-13T15:13:11.590Z,208
2023-01-13T15:14:19.771Z,240
2023-01-13T15:15:28.943Z,217
2023-01-13T15:16:38.119Z,203
2023-01-13T15:17:47.289Z,198
2023-01-13T15:18:56.451Z,195
2023-01-13T15:20:05.637Z,187
2023-01-13T15:21:14.813Z,171
2023-01-13T15:22:24.000Z,165
2023-01-13T15:23:33.153Z,158
2023-01-13T15:24:42.312Z,160
2023-01-13T15:25:51.505Z,157
2023-01-13T15:27:00.660Z,150
2023-01-13T15:28:09.865Z,166
2023-01-13T15:29:18.027Z,164
2023-01-13T15:30:27.190Z,142
2023-01-13T15:31:36.369Z,117
2023-01-13T15:32:45.561Z,100
2023-01-13T15:33:54.713Z,86
2023-01-13T15:35:03.897Z,83
2023-01-13T15:36:13.065Z,105
2023-01-13T15:38:31.412Z,96
2023-01-13T15:39:39.620Z,71
2023-01-13T15:40:47.818Z,70
2023-01-13T15:41:55.988Z,138
2023-01-13T15:43:04.199Z,146
2023-01-13T15:44:13.344Z,142
2023-01-13T15:45:22.519Z,154
2023-01-13T15:46:31.794Z,124
2023-01-13T15:47:40.872Z,101
2023-01-13T15:48:50.044Z,96
2023-01-13T15:49:59.213Z,84
2023-01-13T15:52:17.553Z,66
2023-01-13T15:53:25.788Z,57
2023-01-13T15:54:34.920Z,36
2023-01-13T15:55:44.093Z,29
2023-01-13T15:56:53.272Z,49
2023-01-13T15:58:02.477Z,44
2023-01-13T15:59:11.737Z,55
2023-01-13T16:00:20.816Z,28
2023-01-13T16:01:29.980Z,36
2023-01-13T16:02:39.160Z,35
2023-01-13T16:03:48.311Z,10
2023-01-13T16:04:57.486Z,5
2023-01-13T16:06:06.665Z,9
2023-01-13T16:07:14.862Z,9
2023-01-13T16:08:23.046Z,9
2023-01-13T16:09:32.204Z,4
2023-01-13T16:10:41.386Z,9
2023-01-13T16:11:50.646Z,9
2023-01-13T16:12:59.729Z,9
2023-01-13T16:14:07.939Z,4
2023-01-13T16:15:16.121Z,4
2023-01-13T16:16:25.303Z,4
2023-01-13T16:17:34.464Z,4
2023-01-13T16:18:43.641Z,4
2023-01-13T16:19:52.817Z,3
2023-01-13T16:21:02.005Z,3
2023-01-13T16:23:20.350Z,3
2023-01-13T16:24:29.509Z,3
2023-01-13T16:25:38.729Z,3
2023-01-13T16:26:47.879Z,3
2023-01-13T16:27:57.037Z,3
2023-01-13T16:29:06.212Z,3
2023-01-13T16:30:14.401Z,0
2023-01-13T16:31:23.572Z,0
2023-01-13T16:32:32.752Z,0
2023-01-13T16:33:41.919Z,0
2023-01-13T16:34:51.143Z,0
2023-01-13T16:36:00.274Z,0
2023-01-13T16:37:09.450Z,0
2023-01-13T16:38:18.635Z,0
2023-01-13T16:39:26.904Z,0
2023-01-13T16:40:35.241Z,0
2023-01-13T16:41:44.181Z,0
2023-01-13T16:42:52.391Z,0
2023-01-13T16:44:01.568Z,0
2023-01-13T16:45:09.789Z,0
2023-01-13T16:46:18.917Z,0
2023-01-13T16:47:28.129Z,0
2023-01-13T16:48:37.305Z,0
2023-01-13T16:49:46.446Z,0